sensor_id;sensor_type;location;lat;lon;timestamp;temperature;humidity
23507;DHT22;11930;53.076;18.250;2022-10-20T00:01:55;0.50;99.90
23507;DHT22;11930;53.076;18.250;2022-10-20T00:04:21;0.50;99.90
23507;DHT22;11930;53.076;18.250;2022-10-20T00:06:47;0.50;99.90
23507;DHT22;11930;53.076;18.250;2022-10-20T00:09:13;0.50;99.90
23507;DHT22;11930;53.076;18.250;2022-10-20T00:11:39;0.40;99.90
23507;DHT22;11930;53.076;18.250;2022-10-20T00:14:05;0.50;99.90
23507;DHT22;11930;53.076;18.250;2022-10-20T00:16:35;0.50;99.90
23507;DHT22;11930;53.076;18.250;2022-10-20T00:19:02;0.50;99.90
23507;DHT22;11930;53.076;18.250;2022-10-20T00:21:28;0.60;99.90
23507;DHT22;11930;53.076;18.250;2022-10-20T00:23:55;0.50;99.90
23507;DHT22;11930;53.076;18.250;2022-10-20T00:26:25;0.50;99.90
23507;DHT22;11930;53.076;18.250;2022-10-20T00:28:52;0.50;99.90
23507;DHT22;11930;53.076;18.250;2022-10-20T00:31:19;0.50;99.90
23507;DHT22;11930;53.076;18.250;2022-10-20T00:33:46;0.50;99.90
23507;DHT22;11930;53.076;18.250;2022-10-20T00:36:14;0.50;99.90
23507;DHT22;11930;53.076;18.250;2022-10-20T00:38:41;0.50;99.90
23507;DHT22;11930;53.076;18.250;2022-10-20T00:41:11;0.50;99.90
23507;DHT22;11930;53.076;18.250;2022-10-20T00:43:41;0.50;99.90
23507;DHT22;11930;53.076;18.250;2022-10-20T00:46:11;0.40;99.90
23507;DHT22;11930;53.076;18.250;2022-10-20T00:48:37;0.40;99.90
23507;DHT22;11930;53.076;18.250;2022-10-20T00:51:04;0.50;99.90
23507;DHT22;11930;53.076;18.250;2022-10-20T00:53:30;0.40;99.90
23507;DHT22;11930;53.076;18.250;2022-10-20T00:55:57;0.50;99.90
23507;DHT22;11930;53.076;18.250;2022-10-20T00:58:24;0.50;99.90
23507;DHT22;11930;53.076;18.250;2022-10-20T01:00:53;0.50;99.90
23507;DHT22;11930;53.076;18.250;2022-10-20T01:06:27;0.40;99.90
23507;DHT22;11930;53.076;18.250;2022-10-20T01:08:54;0.30;99.90
23507;DHT22;11930;53.076;18.250;2022-10-20T01:14:33;0.20;99.90
23507;DHT22;11930;53.076;18.250;2022-10-20T01:17:35;0.20;99.90
23507;DHT22;11930;53.076;18.250;2022-10-20T01:25:47;0.10;99.90
23507;DHT22;11930;53.076;18.250;2022-10-20T01:28:37;0.10;99.90
23507;DHT22;11930;53.076;18.250;2022-10-20T01:31:16;0.00;99.90
23507;DHT22;11930;53.076;18.250;2022-10-20T01:34:03;0.00;99.90
23507;DHT22;11930;53.076;18.250;2022-10-20T01:36:36;-0.10;99.90
23507;DHT22;11930;53.076;18.250;2022-10-20T01:39:08;-0.10;99.90
23507;DHT22;11930;53.076;18.250;2022-10-20T01:41:45;-0.20;99.90
23507;DHT22;11930;53.076;18.250;2022-10-20T01:44:16;-0.20;99.90
23507;DHT22;11930;53.076;18.250;2022-10-20T01:46:44;-0.20;99.90
23507;DHT22;11930;53.076;18.250;2022-10-20T01:49:12;-0.20;99.90
23507;DHT22;11930;53.076;18.250;2022-10-20T01:51:39;-0.20;99.90
23507;DHT22;11930;53.076;18.250;2022-10-20T01:54:05;-0.20;99.90
23507;DHT22;11930;53.076;18.250;2022-10-20T01:56:44;-0.20;99.90
23507;DHT22;11930;53.076;18.250;2022-10-20T02:02:07;-0.40;99.90
23507;DHT22;11930;53.076;18.250;2022-10-20T02:04:51;-0.40;99.90
23507;DHT22;11930;53.076;18.250;2022-10-20T02:07:29;-0.30;99.90
23507;DHT22;11930;53.076;18.250;2022-10-20T02:10:04;-0.40;99.90
23507;DHT22;11930;53.076;18.250;2022-10-20T02:12:36;-0.40;99.90
23507;DHT22;11930;53.076;18.250;2022-10-20T02:15:05;-0.40;99.90
23507;DHT22;11930;53.076;18.250;2022-10-20T02:17:33;-0.50;99.90
23507;DHT22;11930;53.076;18.250;2022-10-20T02:20:00;-0.50;99.90
23507;DHT22;11930;53.076;18.250;2022-10-20T02:22:27;-0.50;99.90
23507;DHT22;11930;53.076;18.250;2022-10-20T02:24:53;-0.50;99.90
23507;DHT22;11930;53.076;18.250;2022-10-20T02:27:28;-0.50;99.90
23507;DHT22;11930;53.076;18.250;2022-10-20T02:30:01;-0.60;99.90
23507;DHT22;11930;53.076;18.250;2022-10-20T02:32:29;-0.60;99.90
23507;DHT22;11930;53.076;18.250;2022-10-20T02:34:56;-0.60;99.90
23507;DHT22;11930;53.076;18.250;2022-10-20T02:37:22;-0.60;99.90
23507;DHT22;11930;53.076;18.250;2022-10-20T02:39:48;-0.60;99.90
23507;DHT22;11930;53.076;18.250;2022-10-20T02:42:14;-0.70;99.90
23507;DHT22;11930;53.076;18.250;2022-10-20T02:44:42;-0.60;99.90
23507;DHT22;11930;53.076;18.250;2022-10-20T02:47:08;-0.70;99.90
23507;DHT22;11930;53.076;18.250;2022-10-20T02:49:34;-0.70;99.90
23507;DHT22;11930;53.076;18.250;2022-10-20T02:52:00;-0.60;99.90
23507;DHT22;11930;53.076;18.250;2022-10-20T02:54:26;-0.60;99.90
23507;DHT22;11930;53.076;18.250;2022-10-20T02:56:54;-0.60;99.90
23507;DHT22;11930;53.076;18.250;2022-10-20T02:59:20;-0.60;99.90
23507;DHT22;11930;53.076;18.250;2022-10-20T03:01:46;-0.60;99.90
23507;DHT22;11930;53.076;18.250;2022-10-20T03:04:12;-0.60;99.90
23507;DHT22;11930;53.076;18.250;2022-10-20T03:06:39;-0.70;99.90
23507;DHT22;11930;53.076;18.250;2022-10-20T03:09:06;-0.70;99.90
23507;DHT22;11930;53.076;18.250;2022-10-20T03:11:32;-0.60;99.90
23507;DHT22;11930;53.076;18.250;2022-10-20T03:13:58;-0.70;99.90
23507;DHT22;11930;53.076;18.250;2022-10-20T03:16:24;-0.70;99.90
23507;DHT22;11930;53.076;18.250;2022-10-20T03:18:50;-0.70;99.90
23507;DHT22;11930;53.076;18.250;2022-10-20T03:21:16;-0.70;99.90
23507;DHT22;11930;53.076;18.250;2022-10-20T03:23:42;-0.80;99.90
23507;DHT22;11930;53.076;18.250;2022-10-20T03:26:09;-0.80;99.90
23507;DHT22;11930;53.076;18.250;2022-10-20T03:28:37;-0.90;99.90
23507;DHT22;11930;53.076;18.250;2022-10-20T03:31:03;-0.90;99.90
23507;DHT22;11930;53.076;18.250;2022-10-20T03:33:30;-0.90;99.90
23507;DHT22;11930;53.076;18.250;2022-10-20T03:35:56;-0.90;99.90
23507;DHT22;11930;53.076;18.250;2022-10-20T03:38:23;-0.90;99.90
23507;DHT22;11930;53.076;18.250;2022-10-20T03:40:49;-0.90;99.90
23507;DHT22;11930;53.076;18.250;2022-10-20T03:43:15;-0.90;99.90
23507;DHT22;11930;53.076;18.250;2022-10-20T03:45:41;-0.90;99.90
23507;DHT22;11930;53.076;18.250;2022-10-20T03:48:08;-0.90;99.90
23507;DHT22;11930;53.076;18.250;2022-10-20T03:50:38;-0.90;99.90
23507;DHT22;11930;53.076;18.250;2022-10-20T03:53:04;-0.90;99.90
23507;DHT22;11930;53.076;18.250;2022-10-20T03:55:30;-0.90;99.90
23507;DHT22;11930;53.076;18.250;2022-10-20T03:57:56;-0.90;99.90
23507;DHT22;11930;53.076;18.250;2022-10-20T04:00:23;-1.00;99.90
23507;DHT22;11930;53.076;18.250;2022-10-20T04:02:49;-1.10;99.90
23507;DHT22;11930;53.076;18.250;2022-10-20T04:05:17;-1.20;99.90
23507;DHT22;11930;53.076;18.250;2022-10-20T04:07:43;-1.20;99.90
23507;DHT22;11930;53.076;18.250;2022-10-20T04:10:10;-1.20;99.90
23507;DHT22;11930;53.076;18.250;2022-10-20T04:12:36;-1.20;99.90
23507;DHT22;11930;53.076;18.250;2022-10-20T04:15:04;-1.20;99.90
23507;DHT22;11930;53.076;18.250;2022-10-20T04:17:30;-1.20;99.90
23507;DHT22;11930;53.076;18.250;2022-10-20T04:19:56;-1.20;99.90
23507;DHT22;11930;53.076;18.250;2022-10-20T04:22:23;-1.20;99.90
23507;DHT22;11930;53.076;18.250;2022-10-20T04:24:49;-1.20;99.90
23507;DHT22;11930;53.076;18.250;2022-10-20T04:27:15;-1.20;99.90
23507;DHT22;11930;53.076;18.250;2022-10-20T04:29:41;-1.20;99.90
23507;DHT22;11930;53.076;18.250;2022-10-20T04:32:07;-1.20;99.90
23507;DHT22;11930;53.076;18.250;2022-10-20T04:34:33;-1.30;99.90
23507;DHT22;11930;53.076;18.250;2022-10-20T04:36:59;-1.40;99.90
23507;DHT22;11930;53.076;18.250;2022-10-20T04:39:25;-1.40;99.90
23507;DHT22;11930;53.076;18.250;2022-10-20T04:41:51;-1.30;99.90
23507;DHT22;11930;53.076;18.250;2022-10-20T04:44:17;-1.30;99.90
23507;DHT22;11930;53.076;18.250;2022-10-20T04:46:43;-1.30;99.90
23507;DHT22;11930;53.076;18.250;2022-10-20T04:49:09;-1.30;99.90
23507;DHT22;11930;53.076;18.250;2022-10-20T04:51:36;-1.30;99.90
23507;DHT22;11930;53.076;18.250;2022-10-20T04:54:02;-1.40;99.90
23507;DHT22;11930;53.076;18.250;2022-10-20T04:56:28;-1.40;99.90
23507;DHT22;11930;53.076;18.250;2022-10-20T04:58:55;-1.40;99.90
23507;DHT22;11930;53.076;18.250;2022-10-20T05:01:25;-1.40;99.90
23507;DHT22;11930;53.076;18.250;2022-10-20T05:03:51;-1.50;99.90
23507;DHT22;11930;53.076;18.250;2022-10-20T05:06:31;-1.40;99.90
23507;DHT22;11930;53.076;18.250;2022-10-20T05:09:01;-1.40;99.90
23507;DHT22;11930;53.076;18.250;2022-10-20T05:11:28;-1.40;99.90
23507;DHT22;11930;53.076;18.250;2022-10-20T05:13:55;-1.40;99.90
23507;DHT22;11930;53.076;18.250;2022-10-20T05:16:22;-1.40;99.90
23507;DHT22;11930;53.076;18.250;2022-10-20T05:18:49;-1.40;99.90
23507;DHT22;11930;53.076;18.250;2022-10-20T05:21:19;-1.40;99.90
23507;DHT22;11930;53.076;18.250;2022-10-20T05:23:45;-1.40;99.90
23507;DHT22;11930;53.076;18.250;2022-10-20T05:26:14;-1.40;99.90
23507;DHT22;11930;53.076;18.250;2022-10-20T05:28:46;-1.40;99.90
23507;DHT22;11930;53.076;18.250;2022-10-20T05:31:13;-1.40;99.90
23507;DHT22;11930;53.076;18.250;2022-10-20T05:33:45;-1.30;99.90
23507;DHT22;11930;53.076;18.250;2022-10-20T05:36:14;-1.30;99.90
23507;DHT22;11930;53.076;18.250;2022-10-20T05:38:41;-1.30;99.90
23507;DHT22;11930;53.076;18.250;2022-10-20T05:41:16;-1.30;99.90
23507;DHT22;11930;53.076;18.250;2022-10-20T05:43:47;-1.20;99.90
23507;DHT22;11930;53.076;18.250;2022-10-20T05:46:14;-1.30;99.90
23507;DHT22;11930;53.076;18.250;2022-10-20T05:48:40;-1.20;99.90
23507;DHT22;11930;53.076;18.250;2022-10-20T05:51:08;-1.20;99.90
23507;DHT22;11930;53.076;18.250;2022-10-20T05:53:36;-1.10;99.90
23507;DHT22;11930;53.076;18.250;2022-10-20T05:56:04;-1.10;99.90
23507;DHT22;11930;53.076;18.250;2022-10-20T05:58:30;-1.00;99.90
23507;DHT22;11930;53.076;18.250;2022-10-20T06:01:10;-0.90;99.90
23507;DHT22;11930;53.076;18.250;2022-10-20T06:03:41;-0.50;99.90
23507;DHT22;11930;53.076;18.250;2022-10-20T06:06:08;-0.20;99.90
23507;DHT22;11930;53.076;18.250;2022-10-20T06:08:34;0.60;99.90
23507;DHT22;11930;53.076;18.250;2022-10-20T06:11:08;1.50;99.90
23507;DHT22;11930;53.076;18.250;2022-10-20T06:13:35;2.60;99.90
23507;DHT22;11930;53.076;18.250;2022-10-20T06:16:09;3.40;99.90
23507;DHT22;11930;53.076;18.250;2022-10-20T06:18:36;4.30;99.90
23507;DHT22;11930;53.076;18.250;2022-10-20T06:21:10;5.00;99.90
23507;DHT22;11930;53.076;18.250;2022-10-20T06:23:36;5.70;99.90
23507;DHT22;11930;53.076;18.250;2022-10-20T06:26:07;6.20;99.90
23507;DHT22;11930;53.076;18.250;2022-10-20T06:28:35;6.90;99.90
23507;DHT22;11930;53.076;18.250;2022-10-20T06:31:16;7.80;99.90
23507;DHT22;11930;53.076;18.250;2022-10-20T06:33:43;8.20;99.90
23507;DHT22;11930;53.076;18.250;2022-10-20T06:36:10;8.60;99.90
23507;DHT22;11930;53.076;18.250;2022-10-20T06:38:37;9.00;99.90
23507;DHT22;11930;53.076;18.250;2022-10-20T06:41:04;9.20;99.90
23507;DHT22;11930;53.076;18.250;2022-10-20T06:43:31;9.50;99.90
23507;DHT22;11930;53.076;18.250;2022-10-20T06:46:00;9.70;99.90
23507;DHT22;11930;53.076;18.250;2022-10-20T06:48:27;9.90;98.00
23507;DHT22;11930;53.076;18.250;2022-10-20T06:51:00;10.10;96.50
23507;DHT22;11930;53.076;18.250;2022-10-20T06:53:28;10.40;96.10
23507;DHT22;11930;53.076;18.250;2022-10-20T06:55:58;10.40;95.50
23507;DHT22;11930;53.076;18.250;2022-10-20T06:58:25;10.50;93.90
23507;DHT22;11930;53.076;18.250;2022-10-20T07:01:24;10.60;94.20
23507;DHT22;11930;53.076;18.250;2022-10-20T07:03:53;10.80;93.80
23507;DHT22;11930;53.076;18.250;2022-10-20T07:06:31;11.00;93.00
23507;DHT22;11930;53.076;18.250;2022-10-20T07:08:58;11.30;93.40
23507;DHT22;11930;53.076;18.250;2022-10-20T07:11:26;11.60;91.20
23507;DHT22;11930;53.076;18.250;2022-10-20T07:13:53;12.00;91.40
23507;DHT22;11930;53.076;18.250;2022-10-20T07:16:21;12.30;90.50
23507;DHT22;11930;53.076;18.250;2022-10-20T07:18:48;12.40;89.80
23507;DHT22;11930;53.076;18.250;2022-10-20T07:21:18;12.50;89.00
23507;DHT22;11930;53.076;18.250;2022-10-20T07:23:44;12.80;89.60
23507;DHT22;11930;53.076;18.250;2022-10-20T07:26:16;13.50;85.90
23507;DHT22;11930;53.076;18.250;2022-10-20T07:28:45;13.80;82.70
23507;DHT22;11930;53.076;18.250;2022-10-20T07:31:18;14.10;81.00
23507;DHT22;11930;53.076;18.250;2022-10-20T07:33:44;13.90;82.10
23507;DHT22;11930;53.076;18.250;2022-10-20T07:36:22;14.10;80.60
23507;DHT22;11930;53.076;18.250;2022-10-20T07:38:53;14.20;79.40
23507;DHT22;11930;53.076;18.250;2022-10-20T07:41:20;14.40;77.80
23507;DHT22;11930;53.076;18.250;2022-10-20T07:43:47;14.40;80.00
23507;DHT22;11930;53.076;18.250;2022-10-20T07:46:14;14.70;77.70
23507;DHT22;11930;53.076;18.250;2022-10-20T07:48:40;14.50;79.10
23507;DHT22;11930;53.076;18.250;2022-10-20T07:53:57;14.70;79.10
23507;DHT22;11930;53.076;18.250;2022-10-20T07:56:25;15.30;79.10
23507;DHT22;11930;53.076;18.250;2022-10-20T07:58:52;15.70;76.10
23507;DHT22;11930;53.076;18.250;2022-10-20T08:01:19;15.90;72.70
23507;DHT22;11930;53.076;18.250;2022-10-20T08:03:44;15.90;73.00
23507;DHT22;11930;53.076;18.250;2022-10-20T08:06:11;16.30;71.30
23507;DHT22;11930;53.076;18.250;2022-10-20T08:08:37;16.10;71.10
23507;DHT22;11930;53.076;18.250;2022-10-20T08:11:03;16.10;71.40
23507;DHT22;11930;53.076;18.250;2022-10-20T08:13:29;16.50;71.80
23507;DHT22;11930;53.076;18.250;2022-10-20T08:15:55;16.70;69.80
23507;DHT22;11930;53.076;18.250;2022-10-20T08:18:22;17.10;69.40
23507;DHT22;11930;53.076;18.250;2022-10-20T08:20:48;17.10;68.10
23507;DHT22;11930;53.076;18.250;2022-10-20T08:23:15;16.90;67.30
23507;DHT22;11930;53.076;18.250;2022-10-20T08:25:41;17.00;67.50
23507;DHT22;11930;53.076;18.250;2022-10-20T08:28:08;17.00;67.10
23507;DHT22;11930;53.076;18.250;2022-10-20T08:30:35;17.60;65.00
23507;DHT22;11930;53.076;18.250;2022-10-20T08:33:01;17.50;67.30
23507;DHT22;11930;53.076;18.250;2022-10-20T08:35:28;17.40;64.70
23507;DHT22;11930;53.076;18.250;2022-10-20T08:37:54;17.40;66.30
23507;DHT22;11930;53.076;18.250;2022-10-20T08:40:25;17.70;64.80
23507;DHT22;11930;53.076;18.250;2022-10-20T08:42:53;17.80;64.60
23507;DHT22;11930;53.076;18.250;2022-10-20T08:45:22;17.60;64.80
23507;DHT22;11930;53.076;18.250;2022-10-20T08:47:51;18.40;61.20
23507;DHT22;11930;53.076;18.250;2022-10-20T08:50:18;18.30;61.60
23507;DHT22;11930;53.076;18.250;2022-10-20T08:52:50;18.00;60.80
23507;DHT22;11930;53.076;18.250;2022-10-20T08:55:43;17.80;62.30
23507;DHT22;11930;53.076;18.250;2022-10-20T08:58:16;18.50;58.50
23507;DHT22;11930;53.076;18.250;2022-10-20T09:00:44;18.10;59.00
23507;DHT22;11930;53.076;18.250;2022-10-20T09:03:21;18.80;58.90
23507;DHT22;11930;53.076;18.250;2022-10-20T09:05:54;18.30;60.00
23507;DHT22;11930;53.076;18.250;2022-10-20T09:08:25;18.60;59.00
23507;DHT22;11930;53.076;18.250;2022-10-20T09:10:53;19.00;58.80
23507;DHT22;11930;53.076;18.250;2022-10-20T09:13:23;19.70;55.30
23507;DHT22;11930;53.076;18.250;2022-10-20T09:15:54;19.10;58.70
23507;DHT22;11930;53.076;18.250;2022-10-20T09:18:21;18.80;57.70
23507;DHT22;11930;53.076;18.250;2022-10-20T09:21:05;18.60;59.20
23507;DHT22;11930;53.076;18.250;2022-10-20T09:23:40;18.90;57.50
23507;DHT22;11930;53.076;18.250;2022-10-20T09:26:16;19.50;55.10
23507;DHT22;11930;53.076;18.250;2022-10-20T09:28:49;19.40;56.50
23507;DHT22;11930;53.076;18.250;2022-10-20T09:31:30;19.60;56.10
23507;DHT22;11930;53.076;18.250;2022-10-20T09:33:56;19.10;57.10
23507;DHT22;11930;53.076;18.250;2022-10-20T09:36:27;19.80;54.50
23507;DHT22;11930;53.076;18.250;2022-10-20T09:38:53;18.70;55.70
23507;DHT22;11930;53.076;18.250;2022-10-20T09:41:23;19.00;56.20
23507;DHT22;11930;53.076;18.250;2022-10-20T09:46:22;18.40;55.20
23507;DHT22;11930;53.076;18.250;2022-10-20T09:48:50;18.10;57.20
23507;DHT22;11930;53.076;18.250;2022-10-20T09:51:20;17.70;56.00
23507;DHT22;11930;53.076;18.250;2022-10-20T09:53:56;17.90;56.70
23507;DHT22;11930;53.076;18.250;2022-10-20T09:56:37;17.90;54.80
23507;DHT22;11930;53.076;18.250;2022-10-20T09:59:08;18.30;54.90
23507;DHT22;11930;53.076;18.250;2022-10-20T10:02:01;17.90;54.70
23507;DHT22;11930;53.076;18.250;2022-10-20T10:04:34;18.00;56.30
23507;DHT22;11930;53.076;18.250;2022-10-20T10:07:03;18.70;54.40
23507;DHT22;11930;53.076;18.250;2022-10-20T10:09:32;18.20;55.30
23507;DHT22;11930;53.076;18.250;2022-10-20T10:14:32;17.10;58.50
23507;DHT22;11930;53.076;18.250;2022-10-20T10:17:02;17.10;57.90
23507;DHT22;11930;53.076;18.250;2022-10-20T10:19:33;17.60;55.70
23507;DHT22;11930;53.076;18.250;2022-10-20T10:22:00;16.90;57.80
23507;DHT22;11930;53.076;18.250;2022-10-20T10:26:59;17.10;56.70
23507;DHT22;11930;53.076;18.250;2022-10-20T10:29:36;17.60;56.70
23507;DHT22;11930;53.076;18.250;2022-10-20T10:32:13;17.60;57.00
23507;DHT22;11930;53.076;18.250;2022-10-20T10:35:06;16.90;58.40
23507;DHT22;11930;53.076;18.250;2022-10-20T10:37:36;16.70;58.50
23507;DHT22;11930;53.076;18.250;2022-10-20T10:43:39;15.70;61.00
23507;DHT22;11930;53.076;18.250;2022-10-20T10:46:10;14.90;63.50
23507;DHT22;11930;53.076;18.250;2022-10-20T10:54:35;13.40;71.40
23507;DHT22;11930;53.076;18.250;2022-10-20T10:57:30;13.20;71.20
23507;DHT22;11930;53.076;18.250;2022-10-20T11:00:05;12.80;72.40
23507;DHT22;11930;53.076;18.250;2022-10-20T11:03:47;12.50;75.40
23507;DHT22;11930;53.076;18.250;2022-10-20T11:11:36;12.50;75.60
23507;DHT22;11930;53.076;18.250;2022-10-20T11:14:27;12.50;76.30
23507;DHT22;11930;53.076;18.250;2022-10-20T11:17:22;12.70;78.20
23507;DHT22;11930;53.076;18.250;2022-10-20T11:20:09;12.80;75.80
23507;DHT22;11930;53.076;18.250;2022-10-20T11:27:55;12.20;78.80
23507;DHT22;11930;53.076;18.250;2022-10-20T11:30:23;12.10;82.30
23507;DHT22;11930;53.076;18.250;2022-10-20T11:35:41;12.30;81.10
23507;DHT22;11930;53.076;18.250;2022-10-20T11:43:31;12.20;81.40
23507;DHT22;11930;53.076;18.250;2022-10-20T11:48:46;12.10;82.50
23507;DHT22;11930;53.076;18.250;2022-10-20T11:51:21;11.90;81.40
23507;DHT22;11930;53.076;18.250;2022-10-20T12:03:11;11.40;86.20
23507;DHT22;11930;53.076;18.250;2022-10-20T12:15:55;11.10;91.10
23507;DHT22;11930;53.076;18.250;2022-10-20T12:18:30;11.10;91.60
23507;DHT22;11930;53.076;18.250;2022-10-20T12:21:08;11.10;91.40
23507;DHT22;11930;53.076;18.250;2022-10-20T12:28:58;11.10;91.20
23507;DHT22;11930;53.076;18.250;2022-10-20T12:34:38;11.40;92.90
23507;DHT22;11930;53.076;18.250;2022-10-20T12:37:16;11.50;93.40
23507;DHT22;11930;53.076;18.250;2022-10-20T12:39:42;11.60;94.10
23507;DHT22;11930;53.076;18.250;2022-10-20T12:44:48;11.50;93.60
23507;DHT22;11930;53.076;18.250;2022-10-20T12:50:04;11.40;93.90
23507;DHT22;11930;53.076;18.250;2022-10-20T12:52:34;11.40;94.20
23507;DHT22;11930;53.076;18.250;2022-10-20T12:55:16;11.40;94.50
23507;DHT22;11930;53.076;18.250;2022-10-20T12:57:44;11.40;93.90
23507;DHT22;11930;53.076;18.250;2022-10-20T13:02:55;11.50;93.80
23507;DHT22;11930;53.076;18.250;2022-10-20T13:05:41;11.50;94.50
23507;DHT22;11930;53.076;18.250;2022-10-20T13:10:47;11.50;94.60
23507;DHT22;11930;53.076;18.250;2022-10-20T13:15:43;11.40;94.90
23507;DHT22;11930;53.076;18.250;2022-10-20T13:18:14;11.40;94.50
23507;DHT22;11930;53.076;18.250;2022-10-20T13:26:22;11.40;93.00
23507;DHT22;11930;53.076;18.250;2022-10-20T13:28:51;11.40;93.60
23507;DHT22;11930;53.076;18.250;2022-10-20T13:31:42;11.40;94.30
23507;DHT22;11930;53.076;18.250;2022-10-20T13:34:26;11.40;94.60
23507;DHT22;11930;53.076;18.250;2022-10-20T13:50:57;10.90;97.20
23507;DHT22;11930;53.076;18.250;2022-10-20T13:53:31;10.80;97.60
23507;DHT22;11930;53.076;18.250;2022-10-20T13:56:20;10.80;98.50
23507;DHT22;11930;53.076;18.250;2022-10-20T13:59:00;10.80;98.80
23507;DHT22;11930;53.076;18.250;2022-10-20T14:01:29;10.80;98.60
23507;DHT22;11930;53.076;18.250;2022-10-20T14:03:55;10.80;98.60
23507;DHT22;11930;53.076;18.250;2022-10-20T14:06:30;10.80;98.80
23507;DHT22;11930;53.076;18.250;2022-10-20T14:09:17;10.70;99.30
23507;DHT22;11930;53.076;18.250;2022-10-20T14:11:50;10.70;99.90
23507;DHT22;11930;53.076;18.250;2022-10-20T14:14:21;10.70;99.70
23507;DHT22;11930;53.076;18.250;2022-10-20T14:16:55;10.60;99.90
23507;DHT22;11930;53.076;18.250;2022-10-20T14:19:23;10.60;99.90
23507;DHT22;11930;53.076;18.250;2022-10-20T14:21:55;10.60;99.90
23507;DHT22;11930;53.076;18.250;2022-10-20T14:26:47;10.50;99.90
23507;DHT22;11930;53.076;18.250;2022-10-20T14:29:16;10.50;99.90
23507;DHT22;11930;53.076;18.250;2022-10-20T14:31:44;10.40;99.90
23507;DHT22;11930;53.076;18.250;2022-10-20T14:34:27;10.40;99.90
23507;DHT22;11930;53.076;18.250;2022-10-20T14:36:55;10.30;99.90
23507;DHT22;11930;53.076;18.250;2022-10-20T14:39:34;10.30;99.90
23507;DHT22;11930;53.076;18.250;2022-10-20T14:42:04;10.20;99.90
23507;DHT22;11930;53.076;18.250;2022-10-20T14:44:30;10.20;99.90
23507;DHT22;11930;53.076;18.250;2022-10-20T14:46:59;10.10;99.90
23507;DHT22;11930;53.076;18.250;2022-10-20T14:49:32;10.00;99.90
23507;DHT22;11930;53.076;18.250;2022-10-20T14:52:05;10.00;99.90
23507;DHT22;11930;53.076;18.250;2022-10-20T14:54:47;10.00;99.90
23507;DHT22;11930;53.076;18.250;2022-10-20T15:00:00;9.80;99.90
23507;DHT22;11930;53.076;18.250;2022-10-20T15:02:38;9.70;99.90
23507;DHT22;11930;53.076;18.250;2022-10-20T15:07:52;9.60;99.90
23507;DHT22;11930;53.076;18.250;2022-10-20T15:10:24;9.50;99.90
23507;DHT22;11930;53.076;18.250;2022-10-20T15:12:52;9.40;99.90
23507;DHT22;11930;53.076;18.250;2022-10-20T15:15:24;9.20;99.90
23507;DHT22;11930;53.076;18.250;2022-10-20T15:20:38;9.00;99.90
23507;DHT22;11930;53.076;18.250;2022-10-20T15:23:09;9.00;99.90
23507;DHT22;11930;53.076;18.250;2022-10-20T15:25:51;8.90;99.90
23507;DHT22;11930;53.076;18.250;2022-10-20T15:30:52;8.70;99.90
23507;DHT22;11930;53.076;18.250;2022-10-20T15:33:18;8.60;99.90
23507;DHT22;11930;53.076;18.250;2022-10-20T15:35:44;8.50;99.90
23507;DHT22;11930;53.076;18.250;2022-10-20T15:38:13;8.40;99.90
23507;DHT22;11930;53.076;18.250;2022-10-20T15:40:39;8.20;99.90
23507;DHT22;11930;53.076;18.250;2022-10-20T15:43:05;8.10;99.90
23507;DHT22;11930;53.076;18.250;2022-10-20T15:45:37;8.00;99.90
23507;DHT22;11930;53.076;18.250;2022-10-20T15:48:03;7.80;99.90
23507;DHT22;11930;53.076;18.250;2022-10-20T15:50:30;7.70;99.90
23507;DHT22;11930;53.076;18.250;2022-10-20T15:52:56;7.60;99.90
23507;DHT22;11930;53.076;18.250;2022-10-20T15:55:33;7.30;99.90
23507;DHT22;11930;53.076;18.250;2022-10-20T15:58:00;7.00;99.90
23507;DHT22;11930;53.076;18.250;2022-10-20T16:00:28;6.80;99.90
23507;DHT22;11930;53.076;18.250;2022-10-20T16:02:54;6.60;99.90
23507;DHT22;11930;53.076;18.250;2022-10-20T16:05:22;6.30;99.90
23507;DHT22;11930;53.076;18.250;2022-10-20T16:07:49;6.10;99.90
23507;DHT22;11930;53.076;18.250;2022-10-20T16:10:17;5.80;99.90
23507;DHT22;11930;53.076;18.250;2022-10-20T16:12:44;5.60;99.90
23507;DHT22;11930;53.076;18.250;2022-10-20T16:15:10;5.40;99.90
23507;DHT22;11930;53.076;18.250;2022-10-20T16:17:36;5.20;99.90
23507;DHT22;11930;53.076;18.250;2022-10-20T16:20:04;5.00;99.90
23507;DHT22;11930;53.076;18.250;2022-10-20T16:22:30;4.90;99.90
23507;DHT22;11930;53.076;18.250;2022-10-20T16:24:56;4.80;99.90
23507;DHT22;11930;53.076;18.250;2022-10-20T16:27:27;4.60;99.90
23507;DHT22;11930;53.076;18.250;2022-10-20T16:29:54;4.50;99.90
23507;DHT22;11930;53.076;18.250;2022-10-20T16:32:20;4.40;99.90
23507;DHT22;11930;53.076;18.250;2022-10-20T16:34:46;4.30;99.90
23507;DHT22;11930;53.076;18.250;2022-10-20T16:37:12;4.30;99.90
23507;DHT22;11930;53.076;18.250;2022-10-20T16:39:38;4.50;99.90
23507;DHT22;11930;53.076;18.250;2022-10-20T16:42:04;4.40;99.90
23507;DHT22;11930;53.076;18.250;2022-10-20T16:44:30;4.30;99.90
23507;DHT22;11930;53.076;18.250;2022-10-20T16:46:56;4.20;99.90
23507;DHT22;11930;53.076;18.250;2022-10-20T16:49:22;4.00;99.90
23507;DHT22;11930;53.076;18.250;2022-10-20T16:51:50;3.90;99.90
23507;DHT22;11930;53.076;18.250;2022-10-20T16:54:16;3.80;99.90
23507;DHT22;11930;53.076;18.250;2022-10-20T16:56:42;3.70;99.90
23507;DHT22;11930;53.076;18.250;2022-10-20T16:59:10;3.70;99.90
23507;DHT22;11930;53.076;18.250;2022-10-20T17:01:36;3.80;99.90
23507;DHT22;11930;53.076;18.250;2022-10-20T17:04:03;3.70;99.90
23507;DHT22;11930;53.076;18.250;2022-10-20T17:06:29;3.60;99.90
23507;DHT22;11930;53.076;18.250;2022-10-20T17:08:57;3.50;99.90
23507;DHT22;11930;53.076;18.250;2022-10-20T17:11:27;3.40;99.90
23507;DHT22;11930;53.076;18.250;2022-10-20T17:13:53;3.30;99.90
23507;DHT22;11930;53.076;18.250;2022-10-20T17:16:25;3.40;99.90
23507;DHT22;11930;53.076;18.250;2022-10-20T17:18:52;3.50;99.90
23507;DHT22;11930;53.076;18.250;2022-10-20T17:21:18;3.40;99.90
23507;DHT22;11930;53.076;18.250;2022-10-20T17:23:45;3.30;99.90
23507;DHT22;11930;53.076;18.250;2022-10-20T17:26:17;3.20;99.90
23507;DHT22;11930;53.076;18.250;2022-10-20T17:28:44;3.10;99.90
23507;DHT22;11930;53.076;18.250;2022-10-20T17:31:13;3.00;99.90
23507;DHT22;11930;53.076;18.250;2022-10-20T17:33:40;2.90;99.90
23507;DHT22;11930;53.076;18.250;2022-10-20T17:36:07;2.80;99.90
23507;DHT22;11930;53.076;18.250;2022-10-20T17:38:33;2.80;99.90
23507;DHT22;11930;53.076;18.250;2022-10-20T17:41:10;2.70;99.90
23507;DHT22;11930;53.076;18.250;2022-10-20T17:43:37;2.60;99.90
23507;DHT22;11930;53.076;18.250;2022-10-20T17:46:09;2.50;99.90
23507;DHT22;11930;53.076;18.250;2022-10-20T17:48:36;2.50;99.90